Time;durP1;ratioP1;P1;durP2;ratioP2;P2;SDS_P1;SDS_P2;PMS_P1;PMS_P2;Temp;Humidity;BMP_temperature;BMP_pressure;BME280_temperature;BME280_humidity;BME280_pressure;Samples;Min_cycle;Max_cycle;Signal;HPM_P1;HPM_P2
2021/01/05 00:02:03;;;;;;;19.83;12.90;;;2.10;99.90;;;;;;5115227;28;20639;-86
2021/01/05 00:04:33;;;;;;;23.20;13.43;;;2.10;99.90;;;;;;5114931;28;20213;-88
2021/01/05 00:07:00;;;;;;;21.47;12.30;;;2.20;99.90;;;;;;5115087;28;20199;-88
2021/01/05 00:09:27;;;;;;;22.87;13.37;;;2.10;99.90;;;;;;5114783;28;20214;-89
2021/01/05 00:12:01;;;;;;;19.50;12.67;;;2.10;99.90;;;;;;5114864;27;20752;-89
2021/01/05 00:14:27;;;;;;;20.90;12.93;;;2.10;99.90;;;;;;5114712;27;20220;-89
2021/01/05 00:16:54;;;;;;;21.10;13.70;;;2.10;99.90;;;;;;5114824;28;20202;-89
2021/01/05 00:19:22;;;;;;;22.47;13.57;;;2.20;99.90;;;;;;5114619;28;20202;-89
2021/01/05 00:21:50;;;;;;;22.17;13.03;;;2.20;99.90;;;;;;5114397;28;20720;-90
2021/01/05 00:24:17;;;;;;;21.17;12.40;;;2.20;99.90;;;;;;5114667;28;20297;-88
2021/01/05 00:26:43;;;;;;;23.50;13.17;;;2.20;99.90;;;;;;5114461;28;20672;-89
2021/01/05 00:29:10;;;;;;;22.70;13.33;;;2.20;99.90;;;;;;5114469;28;20719;-88
2021/01/05 00:31:37;;;;;;;21.90;13.60;;;2.10;99.90;;;;;;5114444;28;20202;-88
2021/01/05 00:34:04;;;;;;;24.13;13.57;;;2.20;99.90;;;;;;5114565;27;20325;-89
2021/01/05 00:36:30;;;;;;;25.13;13.83;;;2.20;99.90;;;;;;5113801;27;20657;-89
2021/01/05 00:38:57;;;;;;;22.50;13.30;;;2.10;99.90;;;;;;5113872;28;20794;-88
2021/01/05 00:41:24;;;;;;;22.97;13.53;;;2.10;99.90;;;;;;5114203;27;20315;-88
2021/01/05 00:43:51;;;;;;;22.47;13.77;;;2.10;99.90;;;;;;5114175;28;20202;-88
2021/01/05 00:46:19;;;;;;;24.00;14.20;;;2.10;99.90;;;;;;5114023;28;20213;-89
2021/01/05 00:48:45;;;;;;;24.03;13.57;;;2.20;99.90;;;;;;5113859;28;20717;-88
2021/01/05 00:51:14;;;;;;;25.87;13.67;;;2.10;99.90;;;;;;5113891;28;20293;-88
2021/01/05 00:53:40;;;;;;;20.97;13.47;;;2.10;99.90;;;;;;5112695;28;20556;-88
2021/01/05 00:56:08;;;;;;;21.33;12.73;;;2.10;99.90;;;;;;5112987;28;20234;-86
2021/01/05 00:58:34;;;;;;;22.40;13.60;;;2.10;99.90;;;;;;5113163;28;20297;-87
2021/01/05 01:01:01;;;;;;;21.80;13.00;;;2.10;99.90;;;;;;5113420;28;20343;-86
2021/01/05 01:03:27;;;;;;;19.83;12.23;;;2.10;99.90;;;;;;5112948;28;20231;-86
2021/01/05 01:05:54;;;;;;;22.23;12.90;;;2.10;99.90;;;;;;5113125;28;20694;-86
2021/01/05 01:08:21;;;;;;;18.23;12.33;;;2.10;99.90;;;;;;5113090;28;20627;-87
2021/01/05 01:10:48;;;;;;;21.70;13.90;;;2.10;99.90;;;;;;5112811;28;20293;-86
2021/01/05 01:13:15;;;;;;;20.97;13.07;;;2.10;99.90;;;;;;5113032;28;20226;-86
2021/01/05 01:15:42;;;;;;;21.33;13.67;;;2.10;99.90;;;;;;5112804;28;20700;-86
2021/01/05 01:18:08;;;;;;;19.80;12.73;;;2.10;99.90;;;;;;5112689;28;20254;-87
2021/01/05 01:20:38;;;;;;;19.33;11.90;;;2.10;99.90;;;;;;5113282;28;20314;-88
2021/01/05 01:23:05;;;;;;;17.03;11.67;;;2.10;99.90;;;;;;5113406;28;20207;-88
2021/01/05 01:25:31;;;;;;;16.97;11.37;;;2.10;99.90;;;;;;5113180;28;20202;-88
2021/01/05 01:27:58;;;;;;;17.20;11.10;;;2.10;99.90;;;;;;5113503;28;20206;-89
2021/01/05 01:30:25;;;;;;;16.50;11.27;;;2.10;99.90;;;;;;5113215;27;20299;-88
2021/01/05 01:32:52;;;;;;;14.77;11.10;;;2.10;99.90;;;;;;5113250;28;20214;-88
2021/01/05 01:35:19;;;;;;;15.10;10.47;;;2.10;99.90;;;;;;5113330;27;20202;-89
2021/01/05 01:37:45;;;;;;;14.43;10.87;;;2.10;99.90;;;;;;5112933;28;20224;-86
2021/01/05 01:40:13;;;;;;;17.93;11.60;;;2.10;99.90;;;;;;5112686;28;20209;-87
2021/01/05 01:42:39;;;;;;;16.40;11.13;;;2.10;99.90;;;;;;5112519;28;20213;-87
2021/01/05 01:45:07;;;;;;;15.67;11.07;;;2.10;99.90;;;;;;5112845;28;20206;-86
2021/01/05 01:47:37;;;;;;;19.53;11.60;;;2.10;99.90;;;;;;5112297;28;20209;-86
2021/01/05 01:50:08;;;;;;;17.30;11.73;;;2.10;99.90;;;;;;5112568;28;20210;-87
2021/01/05 01:53:05;;;;;;;17.23;11.27;;;2.10;99.90;;;;;;5112276;28;20640;-87
2021/01/05 01:55:40;;;;;;;15.70;11.77;;;2.20;99.90;;;;;;5111998;28;20244;-87
2021/01/05 01:58:49;;;;;;;14.47;10.80;;;2.20;99.90;;;;;;5112646;28;20194;-87
2021/01/05 02:01:25;;;;;;;17.10;11.87;;;2.20;99.90;;;;;;5102711;27;20247;-89
2021/01/05 02:04:19;;;;;;;16.10;11.67;;;2.20;99.90;;;;;;5112740;28;20727;-90
2021/01/05 02:07:21;;;;;;;19.20;12.27;;;2.10;99.90;;;;;;5112656;28;20285;-90
2021/01/05 02:10:06;;;;;;;16.00;11.77;;;2.10;99.90;;;;;;5099077;28;20227;-90
2021/01/05 02:12:38;;;;;;;15.77;11.60;;;2.20;99.90;;;;;;5112724;28;20771;-88
2021/01/05 02:15:15;;;;;;;16.40;12.20;;;2.20;99.90;;;;;;5111939;28;20251;-86
2021/01/05 02:18:24;;;;;;;15.90;12.20;;;2.20;99.90;;;;;;5111843;28;20202;-86
2021/01/05 02:20:55;;;;;;;13.57;10.90;;;2.20;99.90;;;;;;5106785;28;20246;-87
2021/01/05 02:23:32;;;;;;;15.53;11.77;;;2.10;99.90;;;;;;5111833;28;20282;-87
2021/01/05 02:26:11;;;;;;;16.70;11.77;;;2.20;99.90;;;;;;5111932;28;20190;-87
2021/01/05 02:28:41;;;;;;;17.37;11.83;;;2.20;99.90;;;;;;5111852;28;20198;-88
2021/01/05 02:31:25;;;;;;;15.73;11.03;;;2.20;99.90;;;;;;5112129;28;20346;-88
2021/01/05 02:33:57;;;;;;;16.70;11.87;;;2.10;99.90;;;;;;5111996;28;20218;-88
2021/01/05 02:36:50;;;;;;;18.17;12.13;;;2.10;99.90;;;;;;5112118;28;20201;-88
2021/01/05 02:39:54;;;;;;;18.13;12.77;;;2.10;99.90;;;;;;5112051;28;20187;-88
2021/01/05 02:43:01;;;;;;;18.33;12.13;;;2.10;99.90;;;;;;5111889;28;20210;-87
2021/01/05 02:45:31;;;;;;;16.30;12.10;;;2.10;99.90;;;;;;5111759;28;20546;-87
2021/01/05 02:48:27;;;;;;;17.27;12.47;;;2.20;99.90;;;;;;5111651;28;20193;-87
2021/01/05 02:51:30;;;;;;;16.60;11.93;;;2.20;99.90;;;;;;5111315;28;20217;-86
2021/01/05 02:54:28;;;;;;;17.03;11.70;;;2.20;99.90;;;;;;5095857;28;20710;-87
2021/01/05 02:57:25;;;;;;;18.03;11.97;;;2.10;99.90;;;;;;5111141;28;20790;-86
2021/01/05 03:00:40;;;;;;;16.87;11.80;;;2.10;99.90;;;;;;5101897;28;20285;-87
2021/01/05 03:03:41;;;;;;;17.57;11.67;;;2.10;99.90;;;;;;5111435;28;20202;-88
2021/01/05 03:06:44;;;;;;;19.57;12.20;;;2.10;99.90;;;;;;5111044;28;20341;-89
2021/01/05 03:09:38;;;;;;;17.37;12.23;;;2.10;99.90;;;;;;5109177;27;20216;-87
2021/01/05 03:12:26;;;;;;;18.27;12.47;;;2.10;99.90;;;;;;5073332;28;20210;-87
2021/01/05 03:15:05;;;;;;;16.67;11.83;;;2.20;99.90;;;;;;5110980;28;20221;-88
2021/01/05 03:17:36;;;;;;;16.53;11.80;;;2.20;99.90;;;;;;5110647;28;20643;-88
2021/01/05 03:20:13;;;;;;;18.53;11.57;;;2.10;99.90;;;;;;5110301;28;20648;-87
2021/01/05 03:22:49;;;;;;;16.73;12.10;;;2.10;99.90;;;;;;5110985;28;20189;-87
2021/01/05 03:25:18;;;;;;;16.33;11.23;;;2.10;99.90;;;;;;5111224;28;20217;-88
2021/01/05 03:27:46;;;;;;;18.30;11.93;;;2.10;99.90;;;;;;5111239;28;20206;-87
2021/01/05 03:30:27;;;;;;;13.70;11.17;;;2.20;99.90;;;;;;5111242;28;20210;-87
2021/01/05 03:32:55;;;;;;;14.27;11.33;;;2.20;99.90;;;;;;5110730;28;20197;-88
2021/01/05 03:35:21;;;;;;;16.97;11.83;;;2.20;99.90;;;;;;5111243;28;20625;-87
2021/01/05 03:37:48;;;;;;;15.20;11.07;;;2.10;99.90;;;;;;5110665;28;20209;-86
2021/01/05 03:40:15;;;;;;;15.47;10.67;;;2.10;99.90;;;;;;5110636;28;20591;-87
2021/01/05 03:42:41;;;;;;;14.93;11.00;;;2.10;99.90;;;;;;5110593;28;20297;-86
2021/01/05 03:45:09;;;;;;;14.03;11.07;;;2.10;99.90;;;;;;5110983;28;20202;-87
2021/01/05 03:47:36;;;;;;;15.93;11.17;;;2.10;99.90;;;;;;5110103;28;20657;-87
2021/01/05 03:50:04;;;;;;;16.87;11.43;;;2.10;99.90;;;;;;5110699;28;20613;-87
2021/01/05 03:52:30;;;;;;;14.67;11.10;;;2.10;99.90;;;;;;5110630;28;20293;-89
2021/01/05 03:54:57;;;;;;;15.13;10.70;;;2.10;99.90;;;;;;5110927;28;20321;-88
2021/01/05 03:57:23;;;;;;;13.37;10.33;;;2.10;99.90;;;;;;5110521;28;20246;-87
2021/01/05 03:59:49;;;;;;;14.47;10.60;;;2.10;99.90;;;;;;5111004;28;20670;-89
2021/01/05 04:02:16;;;;;;;12.97;10.30;;;2.10;99.90;;;;;;5111166;28;20209;-88
2021/01/05 04:04:42;;;;;;;14.73;10.30;;;2.10;99.90;;;;;;5121675;28;20285;-87
2021/01/05 04:07:09;;;;;;;12.07;9.80;;;2.10;99.90;;;;;;5130631;27;20208;-86
2021/01/05 04:09:35;;;;;;;12.87;9.87;;;2.10;99.90;;;;;;5129669;27;20292;-84
2021/01/05 04:12:02;;;;;;;12.93;10.10;;;2.10;99.90;;;;;;5117153;27;20310;-83
2021/01/05 04:14:28;;;;;;;12.53;10.43;;;2.20;99.90;;;;;;5106689;28;20313;-83
2021/01/05 04:16:55;;;;;;;13.27;9.60;;;2.20;99.90;;;;;;5107192;28;20206;-83
2021/01/05 04:19:21;;;;;;;13.13;9.63;;;2.20;99.90;;;;;;5126938;27;20678;-83
2021/01/05 04:21:49;;;;;;;12.70;9.70;;;2.20;99.90;;;;;;5126599;27;20208;-82
2021/01/05 04:24:17;;;;;;;14.23;10.17;;;2.10;99.90;;;;;;5126704;27;20216;-82
2021/01/05 04:26:43;;;;;;;13.50;10.10;;;2.10;99.90;;;;;;5124081;27;20210;-80
2021/01/05 04:29:10;;;;;;;21.10;17.53;;;2.20;99.90;;;;;;5119320;27;20202;-81
2021/01/05 04:31:38;;;;;;;21.53;17.27;;;2.20;99.90;;;;;;5121137;27;20660;-82
2021/01/05 04:34:05;;;;;;;14.27;10.63;;;2.10;99.90;;;;;;5114139;27;20316;-82
2021/01/05 04:36:32;;;;;;;13.60;10.00;;;2.10;99.90;;;;;;5109395;28;20217;-82
2021/01/05 04:38:58;;;;;;;11.67;9.40;;;2.20;99.90;;;;;;5110530;28;20206;-86
2021/01/05 04:41:27;;;;;;;10.97;8.93;;;2.20;99.90;;;;;;5110541;28;20202;-83
2021/01/05 04:43:58;;;;;;;12.00;9.03;;;2.20;99.90;;;;;;5110506;28;20293;-83
2021/01/05 04:46:38;;;;;;;11.20;9.50;;;2.20;99.90;;;;;;5109896;28;20649;-85
2021/01/05 04:49:27;;;;;;;10.43;8.60;;;2.20;99.90;;;;;;5110140;28;20197;-84
2021/01/05 04:52:00;;;;;;;11.70;8.83;;;2.20;99.90;;;;;;5108971;28;20228;-85
2021/01/05 04:54:30;;;;;;;12.33;8.47;;;2.20;99.90;;;;;;5110680;28;20969;-84
2021/01/05 04:57:08;;;;;;;10.83;9.20;;;2.20;99.90;;;;;;5110795;27;20244;-84
2021/01/05 04:59:38;;;;;;;11.40;8.90;;;2.20;99.90;;;;;;5110096;28;20195;-83
2021/01/05 05:02:17;;;;;;;12.73;8.67;;;2.20;99.90;;;;;;5109786;27;20660;-84
2021/01/05 05:04:51;;;;;;;11.37;8.63;;;2.10;99.90;;;;;;5118779;27;20208;-87
2021/01/05 05:07:24;;;;;;;11.93;9.17;;;2.10;99.90;;;;;;5117445;27;20201;-86
2021/01/05 05:09:55;;;;;;;11.07;8.90;;;2.10;99.90;;;;;;5116430;27;20296;-85
2021/01/05 05:12:44;;;;;;;11.00;9.20;;;2.20;99.90;;;;;;5117656;27;20201;-86
2021/01/05 05:15:31;;;;;;;10.03;8.70;;;2.20;99.90;;;;;;5123581;27;20297;-87
2021/01/05 05:18:27;;;;;;;12.87;8.70;;;2.20;99.90;;;;;;5114218;27;20251;-86
2021/01/05 05:21:12;;;;;;;12.17;9.27;;;2.20;99.90;;;;;;5128241;27;20197;-85
2021/01/05 05:24:18;;;;;;;9.53;8.53;;;2.20;99.90;;;;;;5122757;27;20250;-86
2021/01/05 05:26:52;;;;;;;9.00;8.03;;;2.20;99.90;;;;;;5111173;28;20195;-85
2021/01/05 05:29:36;;;;;;;9.53;8.53;;;2.20;99.90;;;;;;5110758;28;20633;-85
2021/01/05 05:32:09;;;;;;;9.77;8.67;;;2.20;99.90;;;;;;5110326;28;20217;-86
2021/01/05 05:34:52;;;;;;;10.03;8.47;;;2.20;99.90;;;;;;5118496;27;20216;-86
2021/01/05 05:37:33;;;;;;;11.40;8.90;;;2.20;99.90;;;;;;5121347;27;20241;-87
2021/01/05 05:40:23;;;;;;;9.67;8.53;;;2.20;99.90;;;;;;5118590;27;20508;-86
2021/01/05 05:43:13;;;;;;;11.40;8.90;;;2.20;99.90;;;;;;5120552;27;20252;-86
2021/01/05 05:45:45;;;;;;;9.90;8.37;;;2.20;99.90;;;;;;5124030;27;20282;-86
2021/01/05 05:48:21;;;;;;;10.80;9.03;;;2.20;99.90;;;;;;5122829;27;20198;-87
2021/01/05 05:50:58;;;;;;;9.40;8.40;;;2.20;99.90;;;;;;5123806;27;20246;-86
2021/01/05 05:53:28;;;;;;;9.60;8.50;;;2.20;99.90;;;;;;5111228;28;20201;-86
2021/01/05 05:55:59;;;;;;;10.93;8.83;;;2.20;99.90;;;;;;5111082;28;20230;-86
2021/01/05 05:58:29;;;;;;;10.57;8.47;;;2.20;99.90;;;;;;5111491;28;20229;-86
2021/01/05 06:00:59;;;;;;;11.53;9.17;;;2.20;99.90;;;;;;5111118;28;20204;-86
2021/01/05 06:03:26;;;;;;;9.37;8.33;;;2.20;99.90;;;;;;5110747;28;20667;-86
2021/01/05 06:05:53;;;;;;;10.63;8.93;;;2.30;99.90;;;;;;5110930;28;20204;-86
2021/01/05 06:08:23;;;;;;;10.67;8.97;;;2.30;99.90;;;;;;5110633;28;20286;-86
2021/01/05 06:10:51;;;;;;;11.90;8.63;;;2.30;99.90;;;;;;5110625;28;20752;-87
2021/01/05 06:13:18;;;;;;;12.27;9.20;;;2.30;99.90;;;;;;5111062;28;20190;-86
2021/01/05 06:15:44;;;;;;;10.00;8.63;;;2.30;99.90;;;;;;5110885;28;20288;-86
2021/01/05 06:18:15;;;;;;;11.67;9.33;;;2.30;99.90;;;;;;5111227;28;20241;-85
2021/01/05 06:20:41;;;;;;;11.37;9.50;;;2.30;99.90;;;;;;5111137;28;20636;-86
2021/01/05 06:23:07;;;;;;;11.57;9.27;;;2.30;99.90;;;;;;5110944;28;20259;-87
2021/01/05 06:25:34;;;;;;;12.67;9.40;;;2.30;99.90;;;;;;5110798;28;20585;-88
2021/01/05 06:28:00;;;;;;;11.63;9.67;;;2.30;99.90;;;;;;5110672;27;20200;-87
2021/01/05 06:30:27;;;;;;;13.23;9.53;;;2.30;99.90;;;;;;5110595;28;20192;-86
2021/01/05 06:32:54;;;;;;;12.40;10.10;;;2.30;99.90;;;;;;5110588;28;20234;-85
2021/01/05 06:35:23;;;;;;;12.67;9.63;;;2.30;99.90;;;;;;5110061;28;20914;-86
2021/01/05 06:37:50;;;;;;;12.63;9.80;;;2.30;99.90;;;;;;5109817;28;20285;-85
2021/01/05 06:40:18;;;;;;;12.73;9.43;;;2.30;99.90;;;;;;5120312;27;20619;-86
2021/01/05 06:42:45;;;;;;;14.20;11.23;;;2.30;99.90;;;;;;5115123;27;20273;-85
2021/01/05 06:45:18;;;;;;;12.17;10.40;;;2.30;99.90;;;;;;5115717;27;20675;-86
2021/01/05 06:47:45;;;;;;;13.43;10.80;;;2.30;99.90;;;;;;5117064;27;20194;-85
2021/01/05 06:50:13;;;;;;;13.23;9.90;;;2.40;99.90;;;;;;5112806;27;20195;-85
2021/01/05 06:52:40;;;;;;;12.90;10.23;;;2.40;99.90;;;;;;5116086;27;20198;-86
2021/01/05 06:55:07;;;;;;;12.20;10.77;;;2.40;99.90;;;;;;5116750;27;20237;-80
2021/01/05 06:57:34;;;;;;;13.97;10.10;;;2.30;99.90;;;;;;5115114;27;20243;-86
2021/01/05 07:00:00;;;;;;;15.50;10.73;;;2.30;99.90;;;;;;5119281;27;20560;-85
2021/01/05 07:02:27;;;;;;;15.97;11.03;;;2.40;99.90;;;;;;5114266;27;20198;-88
2021/01/05 07:04:53;;;;;;;14.93;11.70;;;2.40;99.90;;;;;;5117681;27;20838;-86
2021/01/05 07:07:20;;;;;;;16.37;11.70;;;2.30;99.90;;;;;;5122033;27;20229;-85
2021/01/05 07:09:47;;;;;;;16.97;11.20;;;2.30;99.90;;;;;;5124381;27;20289;-86
2021/01/05 07:12:13;;;;;;;16.03;11.67;;;2.30;99.90;;;;;;5124874;27;20416;-86
2021/01/05 07:14:40;;;;;;;17.53;11.93;;;2.30;99.90;;;;;;5127665;27;20429;-86
2021/01/05 07:17:06;;;;;;;18.03;12.10;;;2.30;99.90;;;;;;5122002;27;20202;-87
2021/01/05 07:19:32;;;;;;;16.00;10.90;;;2.30;99.90;;;;;;5127633;27;20202;-86
2021/01/05 07:21:59;;;;;;;20.77;11.80;;;2.40;99.90;;;;;;5114206;28;20669;-86
2021/01/05 07:24:25;;;;;;;18.80;12.30;;;2.40;99.90;;;;;;5115018;28;20193;-85
2021/01/05 07:26:52;;;;;;;16.37;11.73;;;2.50;99.90;;;;;;5123437;28;21053;-85
2021/01/05 07:29:21;;;;;;;19.10;11.17;;;2.50;99.90;;;;;;5118572;27;20197;-86
2021/01/05 07:31:49;;;;;;;18.47;12.60;;;2.50;99.90;;;;;;5115055;28;20305;-85
2021/01/05 07:34:15;;;;;;;16.07;11.70;;;2.50;99.90;;;;;;5120653;28;20300;-85
2021/01/05 07:36:45;;;;;;;16.53;11.70;;;2.50;99.90;;;;;;5117796;28;20247;-86
2021/01/05 07:39:21;;;;;;;18.30;11.83;;;2.50;99.90;;;;;;5123281;28;20230;-86
2021/01/05 07:41:48;;;;;;;17.00;11.87;;;2.60;99.90;;;;;;5120615;28;20301;-86
2021/01/05 07:44:16;;;;;;;19.33;12.03;;;2.60;99.90;;;;;;5118188;28;20257;-84
2021/01/05 07:46:43;;;;;;;17.67;12.27;;;2.60;99.90;;;;;;5121825;28;20285;-85
2021/01/05 07:49:09;;;;;;;19.93;11.77;;;2.50;99.90;;;;;;5113657;27;20300;-85
2021/01/05 07:51:36;;;;;;;16.53;11.23;;;2.50;99.90;;;;;;5117391;28;20195;-85
2021/01/05 07:54:04;;;;;;;17.17;11.73;;;2.50;99.90;;;;;;5115734;28;20226;-85
2021/01/05 07:56:30;;;;;;;17.73;11.93;;;2.50;99.90;;;;;;5124581;27;20325;-85
2021/01/05 07:58:56;;;;;;;16.23;11.70;;;2.50;99.90;;;;;;5114577;28;20198;-85
2021/01/05 08:01:31;;;;;;;17.80;11.23;;;2.40;99.90;;;;;;5109439;28;20297;-85
2021/01/05 08:03:57;;;;;;;18.60;11.60;;;2.40;99.90;;;;;;5130484;27;20197;-86
2021/01/05 08:06:23;;;;;;;14.70;11.40;;;2.40;99.90;;;;;;5120027;27;20190;-86
2021/01/05 08:08:50;;;;;;;16.77;11.47;;;2.40;99.90;;;;;;5123761;27;20626;-86
2021/01/05 08:11:16;;;;;;;17.17;11.67;;;2.40;99.90;;;;;;5118510;27;20198;-84
2021/01/05 08:13:43;;;;;;;14.53;11.23;;;2.40;99.90;;;;;;5126725;27;20193;-85
2021/01/05 08:16:12;;;;;;;23.47;15.83;;;2.40;99.90;;;;;;5117721;27;20195;-82
2021/01/05 08:18:39;;;;;;;27.33;22.13;;;2.40;99.90;;;;;;5117226;27;20200;-84
2021/01/05 08:21:06;;;;;;;20.23;12.33;;;2.50;99.90;;;;;;5133695;27;20659;-87
2021/01/05 08:23:32;;;;;;;17.17;12.07;;;2.50;99.90;;;;;;5133811;27;20205;-85
2021/01/05 08:25:58;;;;;;;19.63;11.97;;;2.50;99.90;;;;;;5133328;27;20211;-86
2021/01/05 08:28:25;;;;;;;18.93;11.97;;;2.50;99.90;;;;;;5129710;27;20233;-85
2021/01/05 08:30:51;;;;;;;18.17;11.93;;;2.50;99.90;;;;;;5121266;27;20284;-84
2021/01/05 08:33:18;;;;;;;19.07;11.80;;;2.50;99.90;;;;;;5121720;27;20197;-87
2021/01/05 08:35:47;;;;;;;17.93;11.97;;;2.50;99.90;;;;;;5121209;27;20596;-85
2021/01/05 08:38:14;;;;;;;19.10;12.33;;;2.50;99.90;;;;;;5118771;27;20208;-86
2021/01/05 08:40:40;;;;;;;18.17;12.10;;;2.50;99.90;;;;;;5121077;27;20225;-85
2021/01/05 08:43:09;;;;;;;19.13;12.87;;;2.50;99.90;;;;;;5117894;27;20194;-87
2021/01/05 08:45:36;;;;;;;18.87;11.87;;;2.50;99.90;;;;;;5118091;27;20279;-87
2021/01/05 08:48:02;;;;;;;18.77;11.77;;;2.40;99.90;;;;;;5124658;27;20211;-87
2021/01/05 08:50:32;;;;;;;18.37;12.57;;;2.50;99.90;;;;;;5116323;27;20198;-87
2021/01/05 08:53:02;;;;;;;17.13;12.00;;;2.50;99.90;;;;;;5119213;27;20338;-85
2021/01/05 08:55:28;;;;;;;18.37;13.03;;;2.40;99.90;;;;;;5129478;27;20233;-87
2021/01/05 08:57:55;;;;;;;20.57;12.77;;;2.50;99.90;;;;;;5126703;27;20220;-85
2021/01/05 09:00:23;;;;;;;18.33;12.93;;;2.50;99.90;;;;;;5124088;27;20198;-85
2021/01/05 09:02:49;;;;;;;19.10;12.83;;;2.50;99.90;;;;;;5120833;27;20306;-87
2021/01/05 09:05:16;;;;;;;19.37;12.80;;;2.50;99.90;;;;;;5126199;27;20289;-87
2021/01/05 09:07:42;;;;;;;18.83;12.10;;;2.60;99.90;;;;;;5126240;27;20301;-86
2021/01/05 09:10:16;;;;;;;17.47;12.90;;;2.50;99.90;;;;;;5112119;28;20243;-86
2021/01/05 09:12:43;;;;;;;16.90;12.30;;;2.60;99.90;;;;;;5111979;28;20400;-87
2021/01/05 09:15:13;;;;;;;17.40;12.43;;;2.60;99.90;;;;;;5111092;27;20232;-85
2021/01/05 09:17:39;;;;;;;19.60;13.00;;;2.60;99.90;;;;;;5111763;28;20209;-86
2021/01/05 09:20:06;;;;;;;17.23;12.30;;;2.50;99.90;;;;;;5111522;28;20612;-86
2021/01/05 09:22:32;;;;;;;17.33;12.57;;;2.50;99.90;;;;;;5111754;28;20264;-86
2021/01/05 09:24:59;;;;;;;21.13;12.43;;;2.60;99.90;;;;;;5111946;28;20680;-89
2021/01/05 09:27:26;;;;;;;17.67;12.23;;;2.60;99.90;;;;;;5111002;28;20230;-86
2021/01/05 09:29:52;;;;;;;18.43;12.90;;;2.60;99.90;;;;;;5111476;28;20198;-87
2021/01/05 09:32:19;;;;;;;17.10;12.67;;;2.60;99.90;;;;;;5111751;28;20247;-86
2021/01/05 09:34:45;;;;;;;26.43;22.07;;;2.60;99.90;;;;;;5117115;27;20779;-82
2021/01/05 09:37:11;;;;;;;21.47;17.07;;;2.70;99.90;;;;;;5121615;27;20289;-81
2021/01/05 09:39:38;;;;;;;17.03;12.63;;;2.70;99.90;;;;;;5120184;27;20253;-85
2021/01/05 09:42:08;;;;;;;17.77;13.00;;;2.70;99.90;;;;;;5114911;27;20202;-85
2021/01/05 09:44:35;;;;;;;16.30;12.10;;;2.70;99.90;;;;;;5123145;27;20194;-85
2021/01/05 09:47:02;;;;;;;17.50;12.60;;;2.80;99.90;;;;;;5120090;27;20208;-86
2021/01/05 09:49:30;;;;;;;17.93;12.77;;;2.70;99.90;;;;;;5122435;27;20194;-84
2021/01/05 09:51:57;;;;;;;13.70;11.10;;;2.80;99.90;;;;;;5119255;27;20301;-85
2021/01/05 09:54:24;;;;;;;15.17;11.57;;;2.70;99.90;;;;;;5127676;27;20229;-85
2021/01/05 09:56:51;;;;;;;15.87;11.20;;;2.70;99.90;;;;;;5121801;27;20241;-85
2021/01/05 09:59:18;;;;;;;13.23;10.33;;;2.70;99.90;;;;;;5118881;27;20238;-85
2021/01/05 10:01:46;;;;;;;15.77;10.77;;;2.80;99.90;;;;;;5117055;27;20202;-85
2021/01/05 10:04:12;;;;;;;14.83;11.30;;;2.80;99.90;;;;;;5122756;27;20235;-85
2021/01/05 10:06:38;;;;;;;14.43;10.43;;;2.80;99.90;;;;;;5119545;27;20204;-86
2021/01/05 10:09:08;;;;;;;13.60;10.73;;;2.80;99.90;;;;;;5119120;27;20293;-85
2021/01/05 10:11:37;;;;;;;15.57;10.97;;;2.80;99.90;;;;;;5110607;28;20202;-85
2021/01/05 10:14:04;;;;;;;14.00;10.70;;;2.80;99.90;;;;;;5110429;28;20293;-86
2021/01/05 10:16:30;;;;;;;11.77;9.87;;;2.90;99.90;;;;;;5110831;28;20206;-86
2021/01/05 10:18:58;;;;;;;11.80;9.97;;;2.80;99.90;;;;;;5111058;28;20649;-86
2021/01/05 10:21:32;;;;;;;13.13;10.50;;;2.80;99.90;;;;;;5111221;28;20209;-87
2021/01/05 10:23:58;;;;;;;15.33;11.13;;;2.90;99.90;;;;;;5111119;28;20197;-86
2021/01/05 10:26:25;;;;;;;12.00;10.00;;;2.90;99.90;;;;;;5116227;27;20675;-86
2021/01/05 10:28:51;;;;;;;13.93;10.07;;;2.90;99.90;;;;;;5131610;27;20205;-87
2021/01/05 10:31:18;;;;;;;11.27;9.97;;;2.90;99.90;;;;;;5131904;27;20201;-87
2021/01/05 10:33:44;;;;;;;12.87;10.60;;;2.90;99.90;;;;;;5112342;27;20293;-87
2021/01/05 10:36:17;;;;;;;12.93;9.93;;;2.90;99.90;;;;;;5109692;28;20608;-86
2021/01/05 10:38:47;;;;;;;14.10;10.90;;;2.80;99.90;;;;;;5110091;28;20194;-86
2021/01/05 10:41:15;;;;;;;13.97;10.27;;;2.90;99.90;;;;;;5109931;28;20193;-85
2021/01/05 10:43:41;;;;;;;15.40;11.33;;;2.90;99.90;;;;;;5110019;28;20283;-85
2021/01/05 10:46:08;;;;;;;12.70;10.37;;;2.90;99.90;;;;;;5116587;27;20208;-84
2021/01/05 10:48:34;;;;;;;15.03;10.97;;;2.90;99.90;;;;;;5117770;27;20251;-85
2021/01/05 10:51:02;;;;;;;18.93;15.03;;;2.90;99.90;;;;;;5114692;27;20726;-84
2021/01/05 10:53:29;;;;;;;13.93;10.50;;;2.90;99.90;;;;;;5118602;27;20200;-85
2021/01/05 10:55:56;;;;;;;14.70;9.30;;;2.90;99.90;;;;;;5123391;27;20573;-86
2021/01/05 10:58:22;;;;;;;11.37;9.90;;;2.90;99.90;;;;;;5114542;27;20656;-84
2021/01/05 11:00:49;;;;;;;11.60;9.33;;;2.90;99.90;;;;;;5118432;27;20198;-85
2021/01/05 11:03:15;;;;;;;15.53;10.20;;;2.90;99.90;;;;;;5112243;27;20747;-85
2021/01/05 11:05:42;;;;;;;12.93;10.53;;;2.90;99.90;;;;;;5114624;27;20247;-86
2021/01/05 11:08:08;;;;;;;11.97;9.27;;;3.00;99.90;;;;;;5115580;27;20330;-84
2021/01/05 11:10:36;;;;;;;12.83;9.67;;;2.90;99.90;;;;;;5126621;27;20209;-86
2021/01/05 11:13:02;;;;;;;13.37;9.70;;;2.90;99.90;;;;;;5121036;27;20601;-85
2021/01/05 11:15:29;;;;;;;14.27;9.93;;;2.90;99.90;;;;;;5114321;27;20343;-84
2021/01/05 11:17:55;;;;;;;10.60;8.73;;;2.90;99.90;;;;;;5114287;28;20230;-83
2021/01/05 11:20:22;;;;;;;11.43;9.03;;;2.80;99.90;;;;;;5117283;28;20201;-84
2021/01/05 11:22:50;;;;;;;12.63;9.60;;;2.80;99.90;;;;;;5111470;28;20633;-84
2021/01/05 11:25:18;;;;;;;11.50;9.03;;;2.90;99.90;;;;;;5120051;28;20285;-84
2021/01/05 11:27:46;;;;;;;14.80;10.00;;;2.80;99.90;;;;;;5119112;28;20202;-84
2021/01/05 11:30:19;;;;;;;12.27;9.90;;;2.90;99.90;;;;;;5123992;27;20255;-84
2021/01/05 11:32:45;;;;;;;12.00;9.93;;;2.80;99.90;;;;;;5117710;27;20614;-83
2021/01/05 11:35:13;;;;;;;12.53;9.73;;;2.80;99.90;;;;;;5118261;28;20321;-84
2021/01/05 11:37:39;;;;;;;13.90;9.20;;;2.80;99.90;;;;;;5123063;27;20769;-84
2021/01/05 11:40:09;;;;;;;13.00;10.23;;;2.80;99.90;;;;;;5123576;27;20212;-84
2021/01/05 11:42:35;;;;;;;15.07;10.03;;;2.80;99.90;;;;;;5122244;27;20746;-84
2021/01/05 11:45:04;;;;;;;12.23;9.70;;;2.80;99.90;;;;;;5119756;27;20200;-84
2021/01/05 11:47:30;;;;;;;12.63;9.90;;;2.90;99.90;;;;;;5120315;27;20288;-84
2021/01/05 11:49:57;;;;;;;13.13;10.13;;;2.90;99.90;;;;;;5121927;27;20251;-84
2021/01/05 11:52:23;;;;;;;12.00;9.40;;;2.80;99.90;;;;;;5127780;27;20205;-84
2021/01/05 11:54:50;;;;;;;12.30;9.13;;;2.80;99.90;;;;;;5129058;27;20222;-83
2021/01/05 11:57:16;;;;;;;11.77;9.40;;;2.90;99.90;;;;;;5120572;27;20222;-84
2021/01/05 11:59:42;;;;;;;13.30;8.80;;;2.90;99.90;;;;;;5124052;27;20320;-84
2021/01/05 12:02:09;;;;;;;12.23;9.53;;;2.90;99.90;;;;;;5123588;27;20273;-85
2021/01/05 12:04:36;;;;;;;11.27;9.27;;;2.90;99.90;;;;;;5128046;27;20284;-84
2021/01/05 12:07:02;;;;;;;11.17;8.90;;;2.90;99.90;;;;;;5127012;27;20204;-84
2021/01/05 12:09:29;;;;;;;11.07;9.17;;;2.90;99.90;;;;;;5114767;27;20219;-83
2021/01/05 12:11:56;;;;;;;11.73;9.07;;;2.90;99.90;;;;;;5118055;27;20233;-84
2021/01/05 12:14:23;;;;;;;16.43;14.67;;;2.90;99.90;;;;;;5115950;27;20225;-90
2021/01/05 12:16:50;;;;;;;14.70;12.03;;;2.90;99.90;;;;;;5118052;27;20869;-91
2021/01/05 12:19:23;;;;;;;11.00;9.77;;;2.90;99.90;;;;;;5121367;27;20355;-84
2021/01/05 12:21:51;;;;;;;12.10;8.80;;;3.00;99.90;;;;;;5118843;27;20190;-84
2021/01/05 12:24:20;;;;;;;11.53;9.60;;;3.00;99.90;;;;;;5123918;27;20201;-84
2021/01/05 12:26:47;;;;;;;12.67;9.93;;;2.90;99.90;;;;;;5125820;27;20225;-84
2021/01/05 12:29:16;;;;;;;12.50;9.60;;;2.90;99.90;;;;;;5121896;27;20247;-83
2021/01/05 12:31:45;;;;;;;11.57;9.17;;;2.90;99.90;;;;;;5120621;27;20245;-84
2021/01/05 12:34:12;;;;;;;10.63;8.73;;;2.90;99.90;;;;;;5127253;27;20202;-83
2021/01/05 12:36:41;;;;;;;10.87;8.50;;;2.90;99.90;;;;;;5126025;27;20740;-83
2021/01/05 12:39:16;;;;;;;12.57;9.20;;;2.90;99.90;;;;;;5119364;27;20751;-82
2021/01/05 12:41:43;;;;;;;10.63;9.40;;;2.90;99.90;;;;;;5122984;27;20671;-83
2021/01/05 12:44:12;;;;;;;13.23;9.13;;;2.90;99.90;;;;;;5126092;27;20194;-83
2021/01/05 12:46:39;;;;;;;12.77;9.57;;;2.90;99.90;;;;;;5132144;27;20201;-83
2021/01/05 12:49:07;;;;;;;15.27;9.87;;;2.90;99.90;;;;;;5121701;27;20648;-83
2021/01/05 12:51:35;;;;;;;16.00;9.13;;;2.90;99.90;;;;;;5118548;27;20222;-83
2021/01/05 12:54:03;;;;;;;10.00;8.93;;;3.00;99.90;;;;;;5126735;27;20256;-83
2021/01/05 12:56:30;;;;;;;15.30;9.30;;;3.00;99.90;;;;;;5116911;27;20318;-84
2021/01/05 12:58:56;;;;;;;13.70;9.63;;;3.00;99.90;;;;;;5124251;27;20285;-83